Cornersville, Tennessee
Current Conditions -  °F | °C
As of 6:55 PM on Wednesday 17 Dec 2014 (Local Time) from KFYM Reporting Station
Clear Clear  
Wind Chill: 26°   Ceiling: Unl
Heat Index: 34°   Visibility: 10mi
Dew Point: 28°   Wind: 10mph
Humidity: 81%   Direction: 360°N
Pressure: 30.23"   Gusts: 22mph
Location:  35.36°N, 86.84°W
Report Text: KFYM 180055Z AUTO 36009G19KT 10SM CLR 01/M02 A3023 RMK
Loading
Personal Weather Stations






























Interactive Weather Map New forecast layout! Learn more

10-Day Weather Forecast

Advertisements
Track Severe Weather on mobile